CheckWX is a tool to help pilots better visualize weather data.  It is not intended as a substitute for an official pre-flight weather briefing.

00:38:11 UTC

KTEB TAF
Teterboro Airport
Teterboro, New Jersey, USA
KTEB 122338Z 1300/1406 14004KT P6SM BKN250 FM130500 VRB02KT P6SM SCT030 BKN250 FM130800 VRB02KT P6SM BKN030 TEMPO 1308/1312 SCT030 FM131400 09004KT P6SM SCT012 BKN020 PROB30 1316/1321 5SM -RA OVC012 FM132100 09005KT 3SM -RA BR SCT006 OVC010 FM140000 07006KT 2SM RA BR SCT003 OVC006

Dec-13@
00:00 UTC

Dec-13 @ 00:00 UTC

Dec-13@
05:00 UTC

Dec-13 @ 05:00 UTC

KTEB 122338Z 1300/1406 14004KT P6SM BKN250
Wind
  • 140° at 4 KTS
Cloud Levels
  • Broken at 25,000' AGL

Dec-13@
05:00 UTC

Dec-13 @ 05:00 UTC

Dec-13@
08:00 UTC

Dec-13 @ 08:00 UTC

FM130500 VRB02KT P6SM SCT030 BKN250

From

From Standard forecast or significant change

Wind
  • Variable at 2 KTS
Cloud Levels
  • Scattered at 3,000' AGL
  • Broken at 25,000' AGL

Dec-13@
08:00 UTC

Dec-13 @ 08:00 UTC

Dec-13@
12:00 UTC

Dec-13 @ 12:00 UTC

TEMPO 1308/1312 SCT030

Temporary

Temporary Changes expected for less than half the time period

Cloud Levels
  • Scattered at 3,000' AGL

Dec-13@
08:00 UTC

Dec-13 @ 08:00 UTC

Dec-13@
14:00 UTC

Dec-13 @ 14:00 UTC

FM130800 VRB02KT P6SM BKN030

From

From Standard forecast or significant change

Wind
  • Variable at 2 KTS
Cloud Levels
  • Broken at 3,000' AGL

Dec-13@
14:00 UTC

Dec-13 @ 14:00 UTC

Dec-13@
21:00 UTC

Dec-13 @ 21:00 UTC

FM131400 09004KT P6SM SCT012 BKN020

From

From Standard forecast or significant change

Wind
  • 090° at 4 KTS
Cloud Levels
  • Scattered at 1,200' AGL
  • Broken at 2,000' AGL

Dec-13@
16:00 UTC

Dec-13 @ 16:00 UTC

Dec-13@
21:00 UTC

Dec-13 @ 21:00 UTC

PROB30 1316/1321 5SM -RA OVC012

Probable - 30% Likelihood

Probable - 30% Likelihood during this time.

Conditions
Light Rain
Cloud Levels
  • Overcast at 1,200' AGL

Dec-13@
21:00 UTC

Dec-13 @ 21:00 UTC

Dec-14@
00:00 UTC

Dec-14 @ 00:00 UTC

FM132100 09005KT 3SM -RA BR SCT006 OVC010

From

From Standard forecast or significant change

Wind
  • 090° at 5 KTS
Conditions
Light Rain, Mist
Cloud Levels
  • Scattered at 600' AGL
  • Overcast at 1,000' AGL

Dec-14@
00:00 UTC

Dec-14 @ 00:00 UTC

Dec-14@
06:00 UTC

Dec-14 @ 06:00 UTC

FM140000 07006KT 2SM RA BR SCT003 OVC006

From

From Standard forecast or significant change

Wind
  • 070° at 6 KTS
Conditions
Rain, Mist
Cloud Levels
  • Scattered at 300' AGL
  • Overcast at 600' AGL